createdAt,value
2017-07-08T00:00:17.618Z,95.30
2017-07-08T00:02:43.943Z,94.80
2017-07-08T00:05:10.276Z,94.80
2017-07-08T00:07:36.605Z,94.70
2017-07-08T00:10:02.996Z,94.50
2017-07-08T00:12:29.366Z,94.50
2017-07-08T00:14:55.731Z,94.50
2017-07-08T00:17:22.810Z,95.00
2017-07-08T00:19:49.186Z,94.80
2017-07-08T00:22:15.500Z,94.90
2017-07-08T00:24:41.873Z,94.80
2017-07-08T00:27:08.969Z,94.80
2017-07-08T00:29:35.367Z,94.80
2017-07-08T00:32:01.709Z,94.70
2017-07-08T00:34:28.051Z,94.80
2017-07-08T00:36:54.400Z,94.70
2017-07-08T00:39:20.762Z,94.70
2017-07-08T00:41:47.882Z,94.50
2017-07-08T00:44:14.236Z,94.50
2017-07-08T00:46:41.297Z,94.60
2017-07-08T00:49:07.641Z,94.60
2017-07-08T00:51:33.981Z,94.60
2017-07-08T00:54:00.356Z,94.60
2017-07-08T00:56:26.654Z,94.50
2017-07-08T00:58:54.262Z,94.70
2017-07-08T01:01:21.329Z,94.70
2017-07-08T01:03:47.657Z,94.70
2017-07-08T01:06:14.028Z,94.80
2017-07-08T01:08:40.351Z,94.70
2017-07-08T01:11:06.709Z,94.50
2017-07-08T01:13:33.042Z,94.50
2017-07-08T01:15:59.435Z,94.50
2017-07-08T01:18:25.803Z,94.50
2017-07-08T01:20:52.167Z,94.40
2017-07-08T01:23:20.376Z,94.20
2017-07-08T01:25:47.586Z,94.30
2017-07-08T01:28:13.918Z,94.30
2017-07-08T01:30:40.274Z,94.20
2017-07-08T01:33:06.609Z,94.20
2017-07-08T01:35:32.999Z,94.20
2017-07-08T01:37:59.358Z,94.30
2017-07-08T01:40:25.729Z,94.30
2017-07-08T01:42:52.082Z,94.30
2017-07-08T01:45:19.187Z,94.30
2017-07-08T01:47:45.552Z,94.60
2017-07-08T01:50:12.681Z,94.30
2017-07-08T01:52:39.026Z,94.30
2017-07-08T01:55:05.478Z,94.30
2017-07-08T01:57:31.880Z,94.30
2017-07-08T01:59:58.978Z,94.20
2017-07-08T02:02:25.318Z,94.20
2017-07-08T02:04:51.674Z,94.20
2017-07-08T02:07:18.002Z,94.20
2017-07-08T02:09:44.346Z,94.10
2017-07-08T02:12:11.397Z,94.70
2017-07-08T02:14:38.495Z,94.40
2017-07-08T02:17:04.862Z,94.40
2017-07-08T02:19:31.211Z,94.30
2017-07-08T02:21:58.292Z,94.70
2017-07-08T02:24:24.672Z,94.70
2017-07-08T02:26:51.795Z,94.60
2017-07-08T02:29:42.955Z,94.60
2017-07-08T02:32:09.324Z,94.40
2017-07-08T02:34:35.675Z,94.30
2017-07-08T02:37:02.009Z,94.40
2017-07-08T02:39:28.375Z,94.30
2017-07-08T02:41:54.731Z,94.30
2017-07-08T02:44:21.057Z,94.40
2017-07-08T02:46:47.404Z,94.30
2017-07-08T02:49:13.746Z,94.40
2017-07-08T02:51:40.095Z,94.40
2017-07-08T02:54:07.204Z,94.30
2017-07-08T02:56:33.568Z,94.30
2017-07-08T02:59:00.662Z,94.20
2017-07-08T03:01:26.994Z,94.20
2017-07-08T03:03:53.327Z,94.20
2017-07-08T03:06:19.672Z,94.10
2017-07-08T03:08:45.973Z,93.90
2017-07-08T03:11:12.295Z,93.90
2017-07-08T03:13:38.635Z,93.90
2017-07-08T03:16:05.000Z,93.80
2017-07-08T03:18:31.374Z,93.50
2017-07-08T03:20:57.714Z,93.70
2017-07-08T03:23:24.122Z,94.00
2017-07-08T03:25:51.283Z,93.30
2017-07-08T03:28:17.662Z,93.30
2017-07-08T03:30:44.004Z,93.20
2017-07-08T03:33:10.358Z,93.30
2017-07-08T03:35:37.435Z,93.30
2017-07-08T03:38:03.809Z,93.30
2017-07-08T03:40:30.873Z,93.30
2017-07-08T03:42:57.951Z,93.30
2017-07-08T03:45:24.246Z,93.30
2017-07-08T03:47:50.585Z,93.30
2017-07-08T03:50:16.990Z,93.70
2017-07-08T03:52:43.386Z,93.80
2017-07-08T03:55:09.743Z,94.00
2017-07-08T03:57:36.123Z,93.80
2017-07-08T04:00:02.517Z,93.60
2017-07-08T04:02:29.630Z,93.80
2017-07-08T04:04:55.984Z,93.80
2017-07-08T04:07:22.362Z,94.00
2017-07-08T04:09:48.703Z,94.00
2017-07-08T04:12:15.117Z,94.00
2017-07-08T04:14:41.451Z,93.80
2017-07-08T04:17:07.814Z,93.90
2017-07-08T04:19:34.150Z,93.60
2017-07-08T04:22:00.505Z,93.60
2017-07-08T04:24:27.654Z,93.50
2017-07-08T04:26:54.734Z,93.20
2017-07-08T04:29:21.044Z,93.20
2017-07-08T04:31:48.134Z,93.20
2017-07-08T04:34:14.513Z,93.20
2017-07-08T04:36:41.640Z,93.20
2017-07-08T04:39:07.962Z,93.20
2017-07-08T04:41:34.329Z,93.30
2017-07-08T04:44:01.448Z,93.40
2017-07-08T04:46:27.776Z,93.40
2017-07-08T04:48:54.870Z,93.70
2017-07-08T04:51:21.204Z,93.70
2017-07-08T04:53:47.593Z,93.80
2017-07-08T04:56:14.715Z,93.40
2017-07-08T04:58:41.078Z,93.40
2017-07-08T05:01:08.162Z,93.20
2017-07-08T05:03:34.500Z,93.20
2017-07-08T05:06:00.873Z,93.10
2017-07-08T05:08:28.076Z,93.00
2017-07-08T05:10:54.430Z,93.20
2017-07-08T05:13:20.766Z,93.30
2017-07-08T05:15:47.127Z,93.20
2017-07-08T05:18:13.495Z,93.00
2017-07-08T05:20:40.187Z,93.00
2017-07-08T05:23:07.314Z,92.90
2017-07-08T05:25:33.817Z,92.90
2017-07-08T05:28:00.186Z,92.90
2017-07-08T05:30:26.537Z,92.90
2017-07-08T05:32:53.658Z,92.70
2017-07-08T05:35:20.042Z,92.90
2017-07-08T05:37:46.414Z,92.70
2017-07-08T05:40:12.829Z,93.00
2017-07-08T05:42:39.185Z,93.00
2017-07-08T05:45:05.543Z,92.70
2017-07-08T05:47:31.880Z,92.50
2017-07-08T05:49:58.210Z,92.10
2017-07-08T05:52:24.628Z,92.70
2017-07-08T05:54:50.962Z,93.10
2017-07-08T05:57:17.359Z,92.90
2017-07-08T05:59:43.759Z,92.30
2017-07-08T06:02:10.100Z,92.10
2017-07-08T06:04:36.580Z,92.20
2017-07-08T06:07:02.971Z,92.00
2017-07-08T06:09:30.121Z,92.20
2017-07-08T06:11:56.436Z,92.20
2017-07-08T06:14:22.811Z,92.50
2017-07-08T06:16:49.188Z,92.80
2017-07-08T06:19:15.543Z,92.70
2017-07-08T06:21:41.920Z,92.40
2017-07-08T06:24:08.395Z,92.10
2017-07-08T06:26:34.760Z,92.10
2017-07-08T06:29:01.184Z,91.80
2017-07-08T06:31:28.291Z,91.80
2017-07-08T06:33:54.692Z,91.80
2017-07-08T06:36:21.073Z,92.20
2017-07-08T06:38:47.430Z,91.20
2017-07-08T06:41:13.807Z,90.70
2017-07-08T06:43:40.172Z,90.70
2017-07-08T06:46:09.160Z,89.70
2017-07-08T06:48:36.291Z,88.30
2017-07-08T06:51:02.663Z,88.20
2017-07-08T06:53:29.042Z,89.30
2017-07-08T06:55:56.259Z,89.00
2017-07-08T06:58:22.626Z,88.80
2017-07-08T07:00:49.010Z,86.80
2017-07-08T07:03:15.687Z,86.00
2017-07-08T07:05:42.063Z,85.70
2017-07-08T07:08:09.145Z,85.40
2017-07-08T07:10:35.551Z,85.30
2017-07-08T07:13:01.910Z,84.60
2017-07-08T07:15:28.273Z,85.90
2017-07-08T07:17:55.374Z,84.50
2017-07-08T07:20:21.791Z,83.80
2017-07-08T07:22:48.162Z,82.60
2017-07-08T07:25:14.637Z,81.50
2017-07-08T07:27:41.752Z,80.40
2017-07-08T07:30:08.097Z,80.40
2017-07-08T07:32:34.442Z,79.40
2017-07-08T07:35:00.987Z,78.50
2017-07-08T07:37:27.330Z,77.90
2017-07-08T07:39:54.595Z,78.80
2017-07-08T07:42:20.933Z,78.40
2017-07-08T07:44:47.292Z,78.50
2017-07-08T07:47:13.704Z,78.30
2017-07-08T07:49:40.070Z,78.10
2017-07-08T07:52:07.131Z,77.70
2017-07-08T07:54:33.523Z,77.70
2017-07-08T07:56:59.906Z,77.20
2017-07-08T07:59:26.286Z,77.40
2017-07-08T08:01:52.644Z,76.80
2017-07-08T08:04:19.044Z,76.30
2017-07-08T08:06:45.373Z,75.50
2017-07-08T08:09:11.777Z,75.90
2017-07-08T08:11:38.182Z,76.50
2017-07-08T08:14:04.828Z,76.10
2017-07-08T08:16:31.165Z,75.50
2017-07-08T08:18:57.506Z,74.60
2017-07-08T08:21:23.845Z,73.30
2017-07-08T08:23:50.316Z,71.90
2017-07-08T08:26:16.687Z,71.10
2017-07-08T08:28:43.087Z,70.70
2017-07-08T08:31:09.506Z,70.50
2017-07-08T08:33:36.625Z,68.80
2017-07-08T08:36:02.988Z,68.90
2017-07-08T08:38:29.390Z,69.60
2017-07-08T08:40:55.805Z,68.30
2017-07-08T08:43:22.182Z,69.10
2017-07-08T08:45:48.580Z,67.60
2017-07-08T08:48:15.705Z,66.80
2017-07-08T08:50:42.105Z,66.80
2017-07-08T08:53:08.491Z,66.10
2017-07-08T08:55:35.642Z,65.20
2017-07-08T08:58:02.759Z,66.00
2017-07-08T09:00:29.158Z,65.90
2017-07-08T09:02:55.525Z,66.40
2017-07-08T09:05:21.932Z,65.60
2017-07-08T09:07:48.308Z,63.90
2017-07-08T09:10:15.355Z,64.90
2017-07-08T09:12:41.722Z,64.80
2017-07-08T09:15:08.138Z,65.10
2017-07-08T09:17:34.547Z,64.80
2017-07-08T09:20:00.923Z,63.60
2017-07-08T09:22:27.226Z,63.40
2017-07-08T09:24:53.672Z,62.40
2017-07-08T09:27:20.007Z,62.10
2017-07-08T09:29:46.416Z,63.70
2017-07-08T09:32:12.800Z,63.90
2017-07-08T09:34:39.151Z,64.20
2017-07-08T09:37:05.578Z,62.70
2017-07-08T09:39:31.894Z,61.70
2017-07-08T09:41:58.244Z,61.20
2017-07-08T09:44:24.625Z,60.90
2017-07-08T09:46:50.964Z,59.10
2017-07-08T09:49:18.645Z,60.30
2017-07-08T09:51:45.080Z,60.50
2017-07-08T09:54:11.445Z,60.10
2017-07-08T09:56:37.842Z,60.20
2017-07-08T09:59:04.298Z,59.40
2017-07-08T10:01:31.409Z,57.70
2017-07-08T10:03:57.799Z,57.60
2017-07-08T10:06:24.173Z,58.60
2017-07-08T10:08:50.545Z,59.70
2017-07-08T10:11:16.911Z,59.70
2017-07-08T10:13:43.278Z,58.20
2017-07-08T10:16:09.674Z,56.60
2017-07-08T10:18:36.135Z,53.50
2017-07-08T10:21:02.523Z,53.20
2017-07-08T10:23:29.535Z,52.50
2017-07-08T10:25:56.035Z,54.70
2017-07-08T10:28:22.441Z,55.00
2017-07-08T10:30:48.825Z,55.80
2017-07-08T10:33:16.266Z,56.40
2017-07-08T10:35:42.815Z,56.40
2017-07-08T10:38:09.996Z,54.30
2017-07-08T10:40:37.146Z,53.00
2017-07-08T10:43:03.519Z,53.00
2017-07-08T10:45:29.869Z,53.80
2017-07-08T10:47:56.986Z,51.80
2017-07-08T10:50:23.342Z,51.80
2017-07-08T10:52:49.697Z,53.60
2017-07-08T10:55:16.133Z,54.50
2017-07-08T10:57:42.568Z,55.70
2017-07-08T11:00:08.903Z,54.10
2017-07-08T11:02:35.263Z,53.60
2017-07-08T11:05:01.640Z,52.70
2017-07-08T11:07:28.020Z,51.50
2017-07-08T11:09:54.413Z,51.70
2017-07-08T11:12:20.803Z,50.70
2017-07-08T11:14:47.172Z,50.60
2017-07-08T11:17:13.578Z,50.70
2017-07-08T11:19:39.985Z,49.80
2017-07-08T11:22:06.377Z,50.00
2017-07-08T11:24:32.777Z,49.40
2017-07-08T11:26:59.199Z,49.80
2017-07-08T11:29:26.314Z,48.20
2017-07-08T11:31:52.713Z,48.70
2017-07-08T11:34:19.084Z,47.70
2017-07-08T11:36:45.477Z,48.60
2017-07-08T11:39:11.814Z,48.00
2017-07-08T11:41:38.507Z,47.80
2017-07-08T11:44:05.651Z,45.00
2017-07-08T11:46:32.760Z,44.60
2017-07-08T11:48:59.150Z,44.50
2017-07-08T11:51:25.513Z,45.20
2017-07-08T11:53:51.924Z,45.50
2017-07-08T11:56:18.273Z,45.40
2017-07-08T11:58:44.706Z,45.60
2017-07-08T12:01:11.105Z,45.40
2017-07-08T12:03:37.508Z,46.50
2017-07-08T12:06:03.898Z,47.90
2017-07-08T12:08:30.265Z,49.00
2017-07-08T12:10:57.379Z,51.70
2017-07-08T12:13:23.800Z,51.70
2017-07-08T12:15:50.270Z,53.20
2017-07-08T12:18:16.666Z,54.40
2017-07-08T12:20:43.011Z,52.80
2017-07-08T12:23:09.395Z,51.70
2017-07-08T12:25:35.888Z,50.10
2017-07-08T12:28:02.261Z,50.50
2017-07-08T12:30:28.647Z,51.40
2017-07-08T12:32:55.014Z,51.00
2017-07-08T12:35:21.384Z,48.80
2017-07-08T12:37:47.782Z,47.50
2017-07-08T12:40:14.179Z,46.90
2017-07-08T12:42:40.602Z,45.80
2017-07-08T12:45:06.972Z,45.70
2017-07-08T12:47:33.354Z,45.60
2017-07-08T12:49:59.719Z,45.10
2017-07-08T12:52:26.081Z,44.90
2017-07-08T12:54:52.470Z,41.70
2017-07-08T12:57:19.619Z,41.30
2017-07-08T12:59:46.039Z,41.30
2017-07-08T13:02:12.462Z,40.50
2017-07-08T13:04:38.899Z,41.30
2017-07-08T13:07:05.261Z,41.30
2017-07-08T13:09:31.653Z,42.50
2017-07-08T13:11:58.038Z,42.60
2017-07-08T13:14:24.461Z,41.10
2017-07-08T13:16:50.844Z,40.20
2017-07-08T13:19:17.404Z,40.20
2017-07-08T13:21:44.541Z,40.00
2017-07-08T13:24:11.723Z,40.70
2017-07-08T13:26:38.080Z,40.70
2017-07-08T13:29:05.134Z,39.90
2017-07-08T13:31:31.513Z,39.90
2017-07-08T13:33:58.153Z,39.90
2017-07-08T13:36:24.521Z,40.10
2017-07-08T13:38:50.899Z,40.10
2017-07-08T13:41:18.270Z,39.10
2017-07-08T13:43:46.052Z,38.30
2017-07-08T13:46:12.439Z,39.40
2017-07-08T13:48:38.904Z,38.80
2017-07-08T13:51:05.599Z,38.00
2017-07-08T13:53:32.689Z,38.30
2017-07-08T13:55:59.074Z,38.20
2017-07-08T13:58:26.235Z,37.90
2017-07-08T14:00:53.498Z,38.40
2017-07-08T14:03:20.745Z,38.30
2017-07-08T14:05:47.137Z,38.70
2017-07-08T14:08:13.485Z,38.30
2017-07-08T14:10:40.623Z,36.30
2017-07-08T14:13:07.029Z,36.30
2017-07-08T14:15:33.387Z,35.00
2017-07-08T14:17:59.746Z,35.70
2017-07-08T14:20:26.831Z,35.70
2017-07-08T14:22:53.626Z,35.60
2017-07-08T14:25:20.796Z,35.20
2017-07-08T14:27:47.207Z,35.20
2017-07-08T14:30:14.353Z,36.00
2017-07-08T14:32:40.786Z,35.90
2017-07-08T14:35:07.897Z,34.90
2017-07-08T14:37:34.255Z,35.00
2017-07-08T14:40:00.908Z,35.10
2017-07-08T14:42:27.298Z,33.70
2017-07-08T14:44:53.657Z,34.60
2017-07-08T14:47:20.796Z,35.20
2017-07-08T14:49:47.521Z,35.10
2017-07-08T14:52:14.042Z,34.70
2017-07-08T14:54:40.407Z,35.00
2017-07-08T14:57:11.890Z,35.30
2017-07-08T14:59:38.231Z,35.30
2017-07-08T15:02:04.562Z,36.20
2017-07-08T15:04:30.962Z,35.50
2017-07-08T15:06:57.287Z,36.50
2017-07-08T15:09:23.659Z,37.40
2017-07-08T15:11:49.999Z,38.70
2017-07-08T15:14:16.513Z,39.20
2017-07-08T15:16:42.966Z,40.20
2017-07-08T15:19:09.639Z,41.70
2017-07-08T15:21:36.005Z,42.40
2017-07-08T15:24:02.435Z,43.10
2017-07-08T15:26:28.811Z,43.70
2017-07-08T15:28:55.156Z,45.30
2017-07-08T15:31:21.572Z,44.90
2017-07-08T15:33:47.922Z,46.40
2017-07-08T15:36:14.275Z,47.90
2017-07-08T15:38:40.711Z,49.40
2017-07-08T15:41:08.704Z,51.20
2017-07-08T15:43:35.077Z,53.50
2017-07-08T15:46:01.444Z,55.00
2017-07-08T15:48:27.929Z,56.10
2017-07-08T15:50:54.326Z,57.40
2017-07-08T15:53:29.748Z,58.90
2017-07-08T15:55:56.136Z,58.70
2017-07-08T15:58:22.493Z,59.10
2017-07-08T16:00:48.841Z,59.50
2017-07-08T16:03:15.511Z,60.10
2017-07-08T16:05:41.825Z,61.10
2017-07-08T16:08:08.173Z,62.50
2017-07-08T16:10:34.542Z,62.80
2017-07-08T16:13:00.910Z,62.00
2017-07-08T16:15:27.278Z,62.60
2017-07-08T16:17:53.698Z,63.20
2017-07-08T16:20:21.078Z,63.40
2017-07-08T16:22:47.453Z,63.20
2017-07-08T16:25:13.806Z,62.80
2017-07-08T16:27:40.181Z,62.80
2017-07-08T16:30:06.578Z,62.90
2017-07-08T16:32:33.724Z,63.30
2017-07-08T16:35:00.839Z,63.10
2017-07-08T16:37:27.188Z,63.10
2017-07-08T16:39:53.590Z,62.40
2017-07-08T16:42:20.001Z,61.60
2017-07-08T16:44:46.373Z,60.90
2017-07-08T16:47:12.713Z,60.60
2017-07-08T16:49:39.450Z,60.00
2017-07-08T16:52:05.785Z,59.70
2017-07-08T16:54:32.864Z,58.70
2017-07-08T16:56:59.239Z,58.60
2017-07-08T16:59:25.593Z,58.60
2017-07-08T17:01:51.938Z,58.60
2017-07-08T17:04:18.319Z,57.80
2017-07-08T17:06:44.702Z,57.00
2017-07-08T17:09:11.092Z,55.70
2017-07-08T17:11:37.432Z,53.80
2017-07-08T17:14:04.521Z,52.90
2017-07-08T17:16:30.879Z,53.40
2017-07-08T17:18:57.197Z,53.00
2017-07-08T17:21:23.550Z,53.50
2017-07-08T17:23:50.321Z,55.60
2017-07-08T17:26:16.645Z,56.10
2017-07-08T17:28:43.059Z,56.80
2017-07-08T17:31:09.405Z,58.20
2017-07-08T17:33:36.474Z,60.70
2017-07-08T17:36:02.859Z,60.00
2017-07-08T17:38:29.219Z,61.10
2017-07-08T17:40:55.618Z,61.50
2017-07-08T17:43:21.965Z,62.10
2017-07-08T17:45:48.706Z,62.40
2017-07-08T17:48:15.851Z,62.40
2017-07-08T17:50:42.204Z,62.30
2017-07-08T17:53:08.576Z,62.40
2017-07-08T17:55:34.954Z,63.00
2017-07-08T17:58:02.036Z,63.30
2017-07-08T18:00:28.409Z,63.30
2017-07-08T18:02:54.789Z,63.30
2017-07-08T18:05:21.160Z,64.00
2017-07-08T18:07:48.596Z,64.60
2017-07-08T18:10:15.433Z,65.60
2017-07-08T18:12:41.845Z,65.70
2017-07-08T18:15:08.600Z,65.70
2017-07-08T18:17:34.958Z,65.50
2017-07-08T18:20:01.679Z,66.00
2017-07-08T18:22:28.954Z,67.00
2017-07-08T18:24:55.891Z,67.00
2017-07-08T18:27:22.223Z,67.50
2017-07-08T18:29:48.557Z,68.00
2017-07-08T18:32:15.949Z,68.10
2017-07-08T18:34:42.318Z,68.50
2017-07-08T18:37:08.705Z,68.70
2017-07-08T18:39:35.059Z,68.80
2017-07-08T18:42:01.441Z,69.20
2017-07-08T18:44:27.870Z,70.10
2017-07-08T18:46:54.596Z,70.60
2017-07-08T18:49:20.965Z,70.20
2017-07-08T18:51:47.327Z,70.30
2017-07-08T18:54:13.748Z,71.20
2017-07-08T18:56:40.163Z,71.30
2017-07-08T18:59:06.539Z,71.40
2017-07-08T19:01:32.891Z,71.10
2017-07-08T19:03:59.305Z,71.00
2017-07-08T19:06:25.655Z,71.40
2017-07-08T19:08:53.101Z,72.70
2017-07-08T19:11:19.468Z,72.70
2017-07-08T19:13:45.848Z,74.00
2017-07-08T19:16:12.232Z,74.10
2017-07-08T19:18:38.643Z,74.00
2017-07-08T19:21:05.274Z,74.30
2017-07-08T19:23:32.823Z,75.20
2017-07-08T19:25:59.975Z,76.30
2017-07-08T19:28:27.113Z,76.70
2017-07-08T19:30:54.595Z,77.40
2017-07-08T19:33:21.124Z,77.40
2017-07-08T19:35:47.499Z,77.80
2017-07-08T19:38:13.909Z,77.40
2017-07-08T19:40:40.292Z,77.50
2017-07-08T19:43:07.429Z,78.60
2017-07-08T19:45:33.863Z,78.20
2017-07-08T19:48:00.735Z,78.70
2017-07-08T19:50:28.452Z,79.20
2017-07-08T19:52:54.839Z,79.70
2017-07-08T19:55:21.337Z,80.30
2017-07-08T19:57:47.724Z,81.00
2017-07-08T20:00:14.145Z,81.60
2017-07-08T20:02:40.561Z,81.90
2017-07-08T20:05:07.235Z,82.00
2017-07-08T20:07:33.596Z,82.10
2017-07-08T20:10:00.736Z,82.60
2017-07-08T20:12:28.269Z,82.10
2017-07-08T20:14:54.626Z,82.40
2017-07-08T20:17:21.784Z,82.60
2017-07-08T20:19:48.908Z,82.60
2017-07-08T20:22:15.384Z,82.60
2017-07-08T20:24:41.888Z,82.50
2017-07-08T20:27:08.631Z,82.60
2017-07-08T20:29:35.724Z,82.70
2017-07-08T20:32:02.153Z,82.60
2017-07-08T20:34:28.523Z,82.50
2017-07-08T20:36:54.891Z,82.60
2017-07-08T20:39:21.280Z,82.70
2017-07-08T20:41:47.639Z,82.80
2017-07-08T20:44:14.779Z,83.50
2017-07-08T20:46:41.888Z,83.70
2017-07-08T20:49:08.763Z,83.70
2017-07-08T20:51:35.849Z,84.30
2017-07-08T20:54:02.227Z,83.80
2017-07-08T20:56:28.608Z,84.00
2017-07-08T20:58:54.963Z,86.00
2017-07-08T21:01:21.333Z,87.80
2017-07-08T21:03:48.448Z,90.10
2017-07-08T21:06:14.833Z,90.10
2017-07-08T21:08:41.214Z,90.20
2017-07-08T21:11:07.570Z,90.50
2017-07-08T21:13:34.665Z,91.00
2017-07-08T21:16:01.065Z,91.00
2017-07-08T21:18:27.441Z,91.00
2017-07-08T21:20:53.844Z,90.80
2017-07-08T21:23:20.783Z,90.60
2017-07-08T21:25:48.286Z,90.50
2017-07-08T21:28:14.629Z,90.50
2017-07-08T21:30:41.044Z,90.50
2017-07-08T21:33:07.458Z,90.50
2017-07-08T21:35:33.864Z,90.50
2017-07-08T21:38:00.602Z,90.60
2017-07-08T21:40:26.979Z,90.80
2017-07-08T21:42:53.347Z,90.90
2017-07-08T21:45:19.815Z,91.10
2017-07-08T21:47:46.178Z,91.40
2017-07-08T21:50:12.537Z,91.30
2017-07-08T21:52:38.908Z,91.10
2017-07-08T21:55:05.259Z,91.00
2017-07-08T21:57:31.722Z,90.80
2017-07-08T21:59:58.838Z,90.80
2017-07-08T22:02:25.212Z,90.80
2017-07-08T22:04:51.546Z,90.90
2017-07-08T22:07:18.038Z,91.00
2017-07-08T22:09:44.407Z,91.10
2017-07-08T22:12:10.753Z,91.00
2017-07-08T22:14:37.118Z,91.10
2017-07-08T22:17:03.488Z,90.90
2017-07-08T22:19:29.932Z,90.80
2017-07-08T22:21:56.314Z,90.70
2017-07-08T22:24:23.613Z,90.60
2017-07-08T22:26:50.007Z,91.00
2017-07-08T22:29:16.389Z,91.20
2017-07-08T22:31:42.760Z,91.10
2017-07-08T22:34:09.851Z,90.50
2017-07-08T22:36:36.226Z,90.80
2017-07-08T22:39:02.639Z,90.60
2017-07-08T22:41:29.037Z,90.60
2017-07-08T22:43:55.367Z,90.60
2017-07-08T22:46:21.729Z,90.50
2017-07-08T22:48:48.108Z,90.40
2017-07-08T22:51:14.537Z,90.30
2017-07-08T22:53:41.656Z,90.30
2017-07-08T22:56:08.054Z,90.20
2017-07-08T22:58:34.408Z,90.20
2017-07-08T23:01:01.172Z,90.50
2017-07-08T23:03:28.244Z,90.30
2017-07-08T23:05:54.614Z,90.30
2017-07-08T23:08:21.001Z,90.30
2017-07-08T23:10:47.372Z,90.20
2017-07-08T23:13:13.738Z,90.20
2017-07-08T23:15:40.801Z,90.40
2017-07-08T23:18:07.175Z,90.40
2017-07-08T23:20:33.551Z,90.40
2017-07-08T23:23:00.689Z,90.20
2017-07-08T23:25:27.847Z,90.30
2017-07-08T23:27:54.219Z,90.30
2017-07-08T23:30:20.604Z,90.80
2017-07-08T23:32:47.709Z,90.70
2017-07-08T23:35:14.044Z,90.70
2017-07-08T23:37:40.402Z,90.70
2017-07-08T23:40:06.778Z,90.80
2017-07-08T23:42:33.150Z,90.80
2017-07-08T23:44:59.523Z,90.90
2017-07-08T23:47:25.885Z,90.90
2017-07-08T23:49:52.290Z,90.90
2017-07-08T23:52:18.686Z,91.00
2017-07-08T23:54:45.759Z,91.40
2017-07-08T23:57:12.122Z,91.40
2017-07-08T23:59:38.491Z,91.60
